sensor_id;sensor_type;location;lat;lon;timestamp;P1;durP1;ratioP1;P2;durP2;ratioP2
4933;SDS011;2482;49.154;8.254;2023-04-25T00:00:14;3.93;;;3.60;;
4933;SDS011;2482;49.154;8.254;2023-04-25T00:02:42;3.67;;;3.37;;
4933;SDS011;2482;49.154;8.254;2023-04-25T00:05:10;5.03;;;3.63;;
4933;SDS011;2482;49.154;8.254;2023-04-25T00:07:37;4.10;;;3.80;;
4933;SDS011;2482;49.154;8.254;2023-04-25T00:10:04;4.23;;;3.83;;
4933;SDS011;2482;49.154;8.254;2023-04-25T00:12:32;4.57;;;4.17;;
4933;SDS011;2482;49.154;8.254;2023-04-25T00:15:01;3.70;;;3.40;;
4933;SDS011;2482;49.154;8.254;2023-04-25T00:17:28;5.00;;;4.23;;
4933;SDS011;2482;49.154;8.254;2023-04-25T00:19:55;4.53;;;4.13;;
4933;SDS011;2482;49.154;8.254;2023-04-25T00:22:24;5.40;;;4.27;;
4933;SDS011;2482;49.154;8.254;2023-04-25T00:24:51;4.00;;;3.70;;
4933;SDS011;2482;49.154;8.254;2023-04-25T00:27:19;4.27;;;3.87;;
4933;SDS011;2482;49.154;8.254;2023-04-25T00:29:46;5.53;;;3.70;;
4933;SDS011;2482;49.154;8.254;2023-04-25T00:32:13;4.30;;;3.87;;
4933;SDS011;2482;49.154;8.254;2023-04-25T00:34:40;3.70;;;3.47;;
4933;SDS011;2482;49.154;8.254;2023-04-25T00:37:07;5.70;;;3.60;;
4933;SDS011;2482;49.154;8.254;2023-04-25T00:39:34;3.97;;;3.40;;
4933;SDS011;2482;49.154;8.254;2023-04-25T00:42:01;5.60;;;4.20;;
4933;SDS011;2482;49.154;8.254;2023-04-25T00:44:29;3.67;;;3.37;;
4933;SDS011;2482;49.154;8.254;2023-04-25T00:46:58;4.37;;;3.80;;
4933;SDS011;2482;49.154;8.254;2023-04-25T00:49:27;4.77;;;4.07;;
4933;SDS011;2482;49.154;8.254;2023-04-25T00:51:54;4.50;;;3.97;;
4933;SDS011;2482;49.154;8.254;2023-04-25T00:54:21;6.57;;;4.17;;
4933;SDS011;2482;49.154;8.254;2023-04-25T00:56:48;4.57;;;4.10;;
4933;SDS011;2482;49.154;8.254;2023-04-25T00:59:16;4.37;;;3.97;;
4933;SDS011;2482;49.154;8.254;2023-04-25T01:01:44;4.67;;;4.13;;
4933;SDS011;2482;49.154;8.254;2023-04-25T01:04:13;3.87;;;3.57;;
4933;SDS011;2482;49.154;8.254;2023-04-25T01:06:40;5.50;;;3.87;;
4933;SDS011;2482;49.154;8.254;2023-04-25T01:09:07;4.00;;;3.60;;
4933;SDS011;2482;49.154;8.254;2023-04-25T01:11:35;5.30;;;4.00;;
4933;SDS011;2482;49.154;8.254;2023-04-25T01:14:02;4.30;;;3.90;;
4933;SDS011;2482;49.154;8.254;2023-04-25T01:16:29;4.13;;;3.73;;
4933;SDS011;2482;49.154;8.254;2023-04-25T01:18:57;5.83;;;4.20;;
4933;SDS011;2482;49.154;8.254;2023-04-25T01:21:25;5.50;;;4.97;;
4933;SDS011;2482;49.154;8.254;2023-04-25T01:23:54;4.57;;;4.17;;
4933;SDS011;2482;49.154;8.254;2023-04-25T01:26:21;6.20;;;4.90;;
4933;SDS011;2482;49.154;8.254;2023-04-25T01:28:48;5.23;;;4.67;;
4933;SDS011;2482;49.154;8.254;2023-04-25T01:31:16;6.30;;;4.00;;
4933;SDS011;2482;49.154;8.254;2023-04-25T01:33:44;5.43;;;4.93;;
4933;SDS011;2482;49.154;8.254;2023-04-25T01:36:11;5.07;;;4.57;;
4933;SDS011;2482;49.154;8.254;2023-04-25T01:38:39;4.90;;;4.50;;
4933;SDS011;2482;49.154;8.254;2023-04-25T01:41:07;5.47;;;4.97;;
4933;SDS011;2482;49.154;8.254;2023-04-25T01:43:34;5.67;;;5.17;;
4933;SDS011;2482;49.154;8.254;2023-04-25T01:46:01;5.40;;;4.90;;
4933;SDS011;2482;49.154;8.254;2023-04-25T01:48:29;5.43;;;4.50;;
4933;SDS011;2482;49.154;8.254;2023-04-25T01:50:56;4.47;;;3.80;;
4933;SDS011;2482;49.154;8.254;2023-04-25T01:53:23;4.67;;;4.10;;
4933;SDS011;2482;49.154;8.254;2023-04-25T01:55:50;6.20;;;4.40;;
4933;SDS011;2482;49.154;8.254;2023-04-25T01:58:18;4.87;;;4.40;;
4933;SDS011;2482;49.154;8.254;2023-04-25T02:00:46;5.20;;;4.27;;
4933;SDS011;2482;49.154;8.254;2023-04-25T02:03:13;4.67;;;4.10;;
4933;SDS011;2482;49.154;8.254;2023-04-25T02:05:40;4.77;;;4.30;;
4933;SDS011;2482;49.154;8.254;2023-04-25T02:08:08;4.50;;;4.03;;
4933;SDS011;2482;49.154;8.254;2023-04-25T02:10:35;5.80;;;5.20;;
4933;SDS011;2482;49.154;8.254;2023-04-25T02:13:04;4.70;;;4.20;;
4933;SDS011;2482;49.154;8.254;2023-04-25T02:15:31;6.30;;;4.80;;
4933;SDS011;2482;49.154;8.254;2023-04-25T02:17:58;5.00;;;4.50;;
4933;SDS011;2482;49.154;8.254;2023-04-25T02:20:26;6.20;;;5.60;;
4933;SDS011;2482;49.154;8.254;2023-04-25T02:22:55;5.47;;;4.90;;
4933;SDS011;2482;49.154;8.254;2023-04-25T02:25:22;6.80;;;5.07;;
4933;SDS011;2482;49.154;8.254;2023-04-25T02:27:49;4.93;;;4.43;;
4933;SDS011;2482;49.154;8.254;2023-04-25T02:30:17;4.63;;;4.27;;
4933;SDS011;2482;49.154;8.254;2023-04-25T02:32:44;5.17;;;4.57;;
4933;SDS011;2482;49.154;8.254;2023-04-25T02:35:12;4.97;;;4.53;;
4933;SDS011;2482;49.154;8.254;2023-04-25T02:37:39;5.07;;;4.57;;
4933;SDS011;2482;49.154;8.254;2023-04-25T02:40:06;5.10;;;4.50;;
4933;SDS011;2482;49.154;8.254;2023-04-25T02:42:34;6.00;;;4.23;;
4933;SDS011;2482;49.154;8.254;2023-04-25T02:45:02;7.10;;;4.40;;
4933;SDS011;2482;49.154;8.254;2023-04-25T02:47:29;5.60;;;4.40;;
4933;SDS011;2482;49.154;8.254;2023-04-25T02:49:57;4.40;;;3.63;;
4933;SDS011;2482;49.154;8.254;2023-04-25T02:52:24;6.03;;;4.73;;
4933;SDS011;2482;49.154;8.254;2023-04-25T02:54:51;4.87;;;4.37;;
4933;SDS011;2482;49.154;8.254;2023-04-25T02:57:18;4.57;;;4.17;;
4933;SDS011;2482;49.154;8.254;2023-04-25T02:59:45;5.30;;;3.80;;
4933;SDS011;2482;49.154;8.254;2023-04-25T03:02:12;6.50;;;4.43;;
4933;SDS011;2482;49.154;8.254;2023-04-25T03:04:39;4.47;;;4.07;;
4933;SDS011;2482;49.154;8.254;2023-04-25T03:07:06;4.60;;;4.20;;
4933;SDS011;2482;49.154;8.254;2023-04-25T03:09:34;5.07;;;4.57;;
4933;SDS011;2482;49.154;8.254;2023-04-25T03:12:01;10.47;;;5.60;;
4933;SDS011;2482;49.154;8.254;2023-04-25T03:14:28;4.60;;;4.20;;
4933;SDS011;2482;49.154;8.254;2023-04-25T03:16:55;6.00;;;4.30;;
4933;SDS011;2482;49.154;8.254;2023-04-25T03:19:22;5.20;;;4.70;;
4933;SDS011;2482;49.154;8.254;2023-04-25T03:21:49;7.00;;;5.33;;
4933;SDS011;2482;49.154;8.254;2023-04-25T03:24:16;5.73;;;4.80;;
4933;SDS011;2482;49.154;8.254;2023-04-25T03:26:43;5.83;;;4.83;;
4933;SDS011;2482;49.154;8.254;2023-04-25T03:29:10;7.07;;;4.50;;
4933;SDS011;2482;49.154;8.254;2023-04-25T03:31:37;5.10;;;4.60;;
4933;SDS011;2482;49.154;8.254;2023-04-25T03:34:04;5.03;;;4.53;;
4933;SDS011;2482;49.154;8.254;2023-04-25T03:36:31;5.00;;;4.50;;
4933;SDS011;2482;49.154;8.254;2023-04-25T03:38:59;6.60;;;4.70;;
4933;SDS011;2482;49.154;8.254;2023-04-25T03:41:26;5.57;;;4.37;;
4933;SDS011;2482;49.154;8.254;2023-04-25T03:43:53;7.57;;;4.90;;
4933;SDS011;2482;49.154;8.254;2023-04-25T03:46:21;4.60;;;4.10;;
4933;SDS011;2482;49.154;8.254;2023-04-25T03:48:48;5.83;;;4.73;;
4933;SDS011;2482;49.154;8.254;2023-04-25T03:51:15;6.00;;;4.80;;
4933;SDS011;2482;49.154;8.254;2023-04-25T03:53:42;5.60;;;5.00;;
4933;SDS011;2482;49.154;8.254;2023-04-25T03:56:09;5.70;;;4.87;;
4933;SDS011;2482;49.154;8.254;2023-04-25T03:58:36;7.90;;;5.60;;
4933;SDS011;2482;49.154;8.254;2023-04-25T04:01:03;6.53;;;5.70;;
4933;SDS011;2482;49.154;8.254;2023-04-25T04:03:34;10.40;;;6.43;;
4933;SDS011;2482;49.154;8.254;2023-04-25T04:06:06;7.30;;;5.93;;
4933;SDS011;2482;49.154;8.254;2023-04-25T04:08:33;8.07;;;6.90;;
4933;SDS011;2482;49.154;8.254;2023-04-25T04:11:00;7.90;;;6.40;;
4933;SDS011;2482;49.154;8.254;2023-04-25T04:13:28;6.80;;;6.10;;
4933;SDS011;2482;49.154;8.254;2023-04-25T04:15:56;7.03;;;5.73;;
4933;SDS011;2482;49.154;8.254;2023-04-25T04:18:24;6.40;;;5.80;;
4933;SDS011;2482;49.154;8.254;2023-04-25T04:20:51;7.80;;;5.87;;
4933;SDS011;2482;49.154;8.254;2023-04-25T04:23:18;8.00;;;5.93;;
4933;SDS011;2482;49.154;8.254;2023-04-25T04:25:46;9.83;;;6.20;;
4933;SDS011;2482;49.154;8.254;2023-04-25T04:28:14;8.07;;;5.57;;
4933;SDS011;2482;49.154;8.254;2023-04-25T04:30:42;7.53;;;5.93;;
4933;SDS011;2482;49.154;8.254;2023-04-25T04:33:12;6.20;;;5.53;;
4933;SDS011;2482;49.154;8.254;2023-04-25T04:35:41;6.90;;;6.00;;
4933;SDS011;2482;49.154;8.254;2023-04-25T04:38:08;6.43;;;5.73;;
4933;SDS011;2482;49.154;8.254;2023-04-25T04:40:36;6.43;;;5.70;;
4933;SDS011;2482;49.154;8.254;2023-04-25T04:43:03;9.03;;;8.10;;
4933;SDS011;2482;49.154;8.254;2023-04-25T04:45:30;11.00;;;5.93;;
4933;SDS011;2482;49.154;8.254;2023-04-25T04:47:57;6.30;;;5.47;;
4933;SDS011;2482;49.154;8.254;2023-04-25T04:50:24;6.13;;;5.53;;
4933;SDS011;2482;49.154;8.254;2023-04-25T04:52:52;9.73;;;5.33;;
4933;SDS011;2482;49.154;8.254;2023-04-25T04:55:21;9.00;;;5.73;;
4933;SDS011;2482;49.154;8.254;2023-04-25T04:57:48;7.70;;;6.10;;
4933;SDS011;2482;49.154;8.254;2023-04-25T05:00:15;6.83;;;5.73;;
4933;SDS011;2482;49.154;8.254;2023-04-25T05:02:42;5.93;;;5.37;;
4933;SDS011;2482;49.154;8.254;2023-04-25T05:05:09;6.30;;;5.70;;
4933;SDS011;2482;49.154;8.254;2023-04-25T05:07:36;7.60;;;5.87;;
4933;SDS011;2482;49.154;8.254;2023-04-25T05:10:03;6.73;;;6.07;;
4933;SDS011;2482;49.154;8.254;2023-04-25T05:12:31;7.50;;;5.97;;
4933;SDS011;2482;49.154;8.254;2023-04-25T05:15:01;7.60;;;5.90;;
4933;SDS011;2482;49.154;8.254;2023-04-25T05:17:27;6.00;;;5.40;;
4933;SDS011;2482;49.154;8.254;2023-04-25T05:19:54;9.63;;;6.73;;
4933;SDS011;2482;49.154;8.254;2023-04-25T05:22:22;9.07;;;7.23;;
4933;SDS011;2482;49.154;8.254;2023-04-25T05:24:49;7.13;;;6.43;;
4933;SDS011;2482;49.154;8.254;2023-04-25T05:27:21;10.97;;;5.63;;
4933;SDS011;2482;49.154;8.254;2023-04-25T05:29:47;6.40;;;5.80;;
4933;SDS011;2482;49.154;8.254;2023-04-25T05:32:14;6.00;;;5.37;;
4933;SDS011;2482;49.154;8.254;2023-04-25T05:34:41;7.23;;;5.60;;
4933;SDS011;2482;49.154;8.254;2023-04-25T05:37:09;6.97;;;5.80;;
4933;SDS011;2482;49.154;8.254;2023-04-25T05:39:36;7.03;;;6.33;;
4933;SDS011;2482;49.154;8.254;2023-04-25T05:42:03;7.03;;;6.00;;
4933;SDS011;2482;49.154;8.254;2023-04-25T05:44:30;6.80;;;5.93;;
4933;SDS011;2482;49.154;8.254;2023-04-25T05:46:57;6.83;;;6.07;;
4933;SDS011;2482;49.154;8.254;2023-04-25T05:49:24;7.30;;;6.60;;
4933;SDS011;2482;49.154;8.254;2023-04-25T05:51:51;7.17;;;5.80;;
4933;SDS011;2482;49.154;8.254;2023-04-25T05:54:18;11.00;;;9.00;;
4933;SDS011;2482;49.154;8.254;2023-04-25T05:56:45;11.13;;;9.83;;
4933;SDS011;2482;49.154;8.254;2023-04-25T05:59:12;9.27;;;7.67;;
4933;SDS011;2482;49.154;8.254;2023-04-25T06:01:39;9.37;;;6.77;;
4933;SDS011;2482;49.154;8.254;2023-04-25T06:04:06;7.70;;;6.67;;
4933;SDS011;2482;49.154;8.254;2023-04-25T06:06:33;7.77;;;5.83;;
4933;SDS011;2482;49.154;8.254;2023-04-25T06:09:00;7.40;;;6.40;;
4933;SDS011;2482;49.154;8.254;2023-04-25T06:11:27;7.10;;;6.03;;
4933;SDS011;2482;49.154;8.254;2023-04-25T06:13:54;8.27;;;6.53;;
4933;SDS011;2482;49.154;8.254;2023-04-25T06:16:21;7.97;;;6.40;;
4933;SDS011;2482;49.154;8.254;2023-04-25T06:18:48;6.50;;;5.87;;
4933;SDS011;2482;49.154;8.254;2023-04-25T06:21:15;7.73;;;7.00;;
4933;SDS011;2482;49.154;8.254;2023-04-25T06:23:43;6.97;;;6.27;;
4933;SDS011;2482;49.154;8.254;2023-04-25T06:26:10;8.80;;;6.90;;
4933;SDS011;2482;49.154;8.254;2023-04-25T06:28:37;8.60;;;7.40;;
4933;SDS011;2482;49.154;8.254;2023-04-25T06:31:04;10.07;;;6.83;;
4933;SDS011;2482;49.154;8.254;2023-04-25T06:33:31;9.00;;;7.77;;
4933;SDS011;2482;49.154;8.254;2023-04-25T06:35:58;7.17;;;6.47;;
4933;SDS011;2482;49.154;8.254;2023-04-25T06:38:25;8.67;;;7.77;;
4933;SDS011;2482;49.154;8.254;2023-04-25T06:40:51;10.33;;;7.80;;
4933;SDS011;2482;49.154;8.254;2023-04-25T06:43:18;8.50;;;7.33;;
4933;SDS011;2482;49.154;8.254;2023-04-25T06:45:45;8.73;;;7.60;;
4933;SDS011;2482;49.154;8.254;2023-04-25T06:48:13;9.50;;;7.50;;
4933;SDS011;2482;49.154;8.254;2023-04-25T06:50:41;9.40;;;7.70;;
4933;SDS011;2482;49.154;8.254;2023-04-25T06:53:08;9.10;;;8.13;;
4933;SDS011;2482;49.154;8.254;2023-04-25T06:55:36;9.70;;;7.90;;
4933;SDS011;2482;49.154;8.254;2023-04-25T06:58:03;9.27;;;8.23;;
4933;SDS011;2482;49.154;8.254;2023-04-25T07:00:30;9.43;;;8.47;;
4933;SDS011;2482;49.154;8.254;2023-04-25T07:02:58;8.97;;;8.07;;
4933;SDS011;2482;49.154;8.254;2023-04-25T07:05:25;8.67;;;7.73;;
4933;SDS011;2482;49.154;8.254;2023-04-25T07:07:52;11.70;;;9.03;;
4933;SDS011;2482;49.154;8.254;2023-04-25T07:10:19;10.30;;;8.10;;
4933;SDS011;2482;49.154;8.254;2023-04-25T07:12:47;10.20;;;8.70;;
4933;SDS011;2482;49.154;8.254;2023-04-25T07:15:14;10.30;;;9.20;;
4933;SDS011;2482;49.154;8.254;2023-04-25T07:17:41;10.27;;;8.50;;
4933;SDS011;2482;49.154;8.254;2023-04-25T07:20:08;10.93;;;8.80;;
4933;SDS011;2482;49.154;8.254;2023-04-25T07:22:36;10.87;;;9.03;;
4933;SDS011;2482;49.154;8.254;2023-04-25T07:25:03;11.30;;;8.37;;
4933;SDS011;2482;49.154;8.254;2023-04-25T07:27:30;9.60;;;8.60;;
4933;SDS011;2482;49.154;8.254;2023-04-25T07:29:58;11.77;;;9.00;;
4933;SDS011;2482;49.154;8.254;2023-04-25T07:32:25;10.57;;;8.43;;
4933;SDS011;2482;49.154;8.254;2023-04-25T07:34:53;9.90;;;8.90;;
4933;SDS011;2482;49.154;8.254;2023-04-25T07:37:20;11.07;;;9.10;;
4933;SDS011;2482;49.154;8.254;2023-04-25T07:39:47;10.87;;;9.43;;
4933;SDS011;2482;49.154;8.254;2023-04-25T07:42:14;12.00;;;8.63;;
4933;SDS011;2482;49.154;8.254;2023-04-25T07:44:41;10.00;;;8.90;;
4933;SDS011;2482;49.154;8.254;2023-04-25T07:47:09;11.20;;;9.90;;
4933;SDS011;2482;49.154;8.254;2023-04-25T07:49:36;12.20;;;9.60;;
4933;SDS011;2482;49.154;8.254;2023-04-25T07:52:04;11.20;;;8.90;;
4933;SDS011;2482;49.154;8.254;2023-04-25T07:54:32;10.73;;;8.60;;
4933;SDS011;2482;49.154;8.254;2023-04-25T07:56:59;11.30;;;10.03;;
4933;SDS011;2482;49.154;8.254;2023-04-25T07:59:26;13.90;;;10.30;;
4933;SDS011;2482;49.154;8.254;2023-04-25T08:01:55;11.13;;;9.50;;
4933;SDS011;2482;49.154;8.254;2023-04-25T08:04:23;11.20;;;9.03;;
4933;SDS011;2482;49.154;8.254;2023-04-25T08:06:52;9.53;;;8.50;;
4933;SDS011;2482;49.154;8.254;2023-04-25T08:09:20;9.40;;;7.90;;
4933;SDS011;2482;49.154;8.254;2023-04-25T08:11:47;11.10;;;9.20;;
4933;SDS011;2482;49.154;8.254;2023-04-25T08:14:14;11.07;;;9.97;;
4933;SDS011;2482;49.154;8.254;2023-04-25T08:16:41;11.83;;;9.20;;
4933;SDS011;2482;49.154;8.254;2023-04-25T08:19:09;11.00;;;9.50;;
4933;SDS011;2482;49.154;8.254;2023-04-25T08:21:37;12.33;;;9.50;;
4933;SDS011;2482;49.154;8.254;2023-04-25T08:24:04;10.70;;;9.57;;
4933;SDS011;2482;49.154;8.254;2023-04-25T08:26:31;11.63;;;9.70;;
4933;SDS011;2482;49.154;8.254;2023-04-25T08:28:59;10.60;;;8.73;;
4933;SDS011;2482;49.154;8.254;2023-04-25T08:31:26;13.37;;;9.40;;
4933;SDS011;2482;49.154;8.254;2023-04-25T08:33:53;10.97;;;9.30;;
4933;SDS011;2482;49.154;8.254;2023-04-25T08:36:20;11.67;;;9.23;;
4933;SDS011;2482;49.154;8.254;2023-04-25T08:39:04;11.03;;;9.00;;
4933;SDS011;2482;49.154;8.254;2023-04-25T08:41:31;10.50;;;9.00;;
4933;SDS011;2482;49.154;8.254;2023-04-25T08:43:58;14.40;;;10.90;;
4933;SDS011;2482;49.154;8.254;2023-04-25T08:46:27;17.00;;;11.63;;
4933;SDS011;2482;49.154;8.254;2023-04-25T08:48:59;14.87;;;11.10;;
4933;SDS011;2482;49.154;8.254;2023-04-25T08:51:29;16.33;;;13.23;;
4933;SDS011;2482;49.154;8.254;2023-04-25T08:54:08;17.10;;;12.20;;
4933;SDS011;2482;49.154;8.254;2023-04-25T08:56:57;17.80;;;12.20;;
4933;SDS011;2482;49.154;8.254;2023-04-25T08:59:31;16.33;;;11.73;;
4933;SDS011;2482;49.154;8.254;2023-04-25T09:01:58;22.13;;;12.73;;
4933;SDS011;2482;49.154;8.254;2023-04-25T09:04:26;17.80;;;12.23;;
4933;SDS011;2482;49.154;8.254;2023-04-25T09:06:53;17.53;;;11.40;;
4933;SDS011;2482;49.154;8.254;2023-04-25T09:09:20;17.43;;;10.50;;
4933;SDS011;2482;49.154;8.254;2023-04-25T09:11:47;18.70;;;11.00;;
4933;SDS011;2482;49.154;8.254;2023-04-25T09:22:04;18.43;;;10.60;;
4933;SDS011;2482;49.154;8.254;2023-04-25T09:24:36;14.87;;;10.07;;
4933;SDS011;2482;49.154;8.254;2023-04-25T09:27:07;18.93;;;9.23;;
4933;SDS011;2482;49.154;8.254;2023-04-25T09:29:37;17.67;;;11.10;;
4933;SDS011;2482;49.154;8.254;2023-04-25T09:32:10;15.60;;;10.43;;
4933;SDS011;2482;49.154;8.254;2023-04-25T09:34:50;17.57;;;10.77;;
4933;SDS011;2482;49.154;8.254;2023-04-25T09:37:23;19.50;;;9.30;;
4933;SDS011;2482;49.154;8.254;2023-04-25T09:39:58;14.70;;;10.77;;
4933;SDS011;2482;49.154;8.254;2023-04-25T09:42:29;18.03;;;9.70;;
4933;SDS011;2482;49.154;8.254;2023-04-25T09:44:58;17.03;;;9.80;;
4933;SDS011;2482;49.154;8.254;2023-04-25T09:47:28;15.47;;;9.53;;
4933;SDS011;2482;49.154;8.254;2023-04-25T09:49:55;14.30;;;8.70;;
4933;SDS011;2482;49.154;8.254;2023-04-25T09:52:23;17.90;;;8.60;;
4933;SDS011;2482;49.154;8.254;2023-04-25T09:54:51;16.43;;;9.03;;
4933;SDS011;2482;49.154;8.254;2023-04-25T09:57:19;13.80;;;8.40;;
4933;SDS011;2482;49.154;8.254;2023-04-25T09:59:50;13.53;;;8.73;;
4933;SDS011;2482;49.154;8.254;2023-04-25T10:02:22;15.90;;;9.30;;
4933;SDS011;2482;49.154;8.254;2023-04-25T10:04:52;13.93;;;8.57;;
4933;SDS011;2482;49.154;8.254;2023-04-25T10:07:26;19.53;;;10.30;;
4933;SDS011;2482;49.154;8.254;2023-04-25T10:10:00;14.97;;;8.43;;
4933;SDS011;2482;49.154;8.254;2023-04-25T10:12:30;16.13;;;8.17;;
4933;SDS011;2482;49.154;8.254;2023-04-25T10:14:59;16.67;;;8.60;;
4933;SDS011;2482;49.154;8.254;2023-04-25T10:17:27;16.93;;;9.47;;
4933;SDS011;2482;49.154;8.254;2023-04-25T10:19:54;18.03;;;9.30;;
4933;SDS011;2482;49.154;8.254;2023-04-25T10:22:29;21.17;;;9.33;;
4933;SDS011;2482;49.154;8.254;2023-04-25T10:24:59;14.17;;;8.50;;
4933;SDS011;2482;49.154;8.254;2023-04-25T10:27:30;12.80;;;8.63;;
4933;SDS011;2482;49.154;8.254;2023-04-25T10:30:15;15.87;;;9.13;;
4933;SDS011;2482;49.154;8.254;2023-04-25T10:32:43;16.00;;;9.10;;
4933;SDS011;2482;49.154;8.254;2023-04-25T10:43:42;20.30;;;9.80;;
4933;SDS011;2482;49.154;8.254;2023-04-25T10:46:17;12.83;;;8.60;;
4933;SDS011;2482;49.154;8.254;2023-04-25T10:48:49;15.87;;;8.70;;
4933;SDS011;2482;49.154;8.254;2023-04-25T10:51:19;13.93;;;8.80;;
4933;SDS011;2482;49.154;8.254;2023-04-25T10:54:18;15.40;;;9.27;;
4933;SDS011;2482;49.154;8.254;2023-04-25T10:56:48;14.53;;;8.63;;
4933;SDS011;2482;49.154;8.254;2023-04-25T10:59:17;16.87;;;8.30;;
4933;SDS011;2482;49.154;8.254;2023-04-25T11:01:49;24.13;;;9.67;;
4933;SDS011;2482;49.154;8.254;2023-04-25T11:04:23;17.00;;;8.30;;
4933;SDS011;2482;49.154;8.254;2023-04-25T11:09:55;15.47;;;10.03;;
4933;SDS011;2482;49.154;8.254;2023-04-25T11:12:24;13.80;;;8.33;;
4933;SDS011;2482;49.154;8.254;2023-04-25T11:14:57;13.20;;;8.73;;
4933;SDS011;2482;49.154;8.254;2023-04-25T11:17:29;10.70;;;7.10;;
4933;SDS011;2482;49.154;8.254;2023-04-25T11:19:57;13.03;;;7.97;;
4933;SDS011;2482;49.154;8.254;2023-04-25T11:22:24;12.97;;;8.00;;
4933;SDS011;2482;49.154;8.254;2023-04-25T11:24:53;14.60;;;8.20;;
4933;SDS011;2482;49.154;8.254;2023-04-25T11:27:20;11.13;;;5.70;;
4933;SDS011;2482;49.154;8.254;2023-04-25T11:29:47;8.53;;;5.97;;
4933;SDS011;2482;49.154;8.254;2023-04-25T11:32:15;8.03;;;4.23;;
4933;SDS011;2482;49.154;8.254;2023-04-25T11:34:46;5.70;;;4.27;;
4933;SDS011;2482;49.154;8.254;2023-04-25T11:37:13;6.03;;;4.90;;
4933;SDS011;2482;49.154;8.254;2023-04-25T11:39:45;9.20;;;5.57;;
4933;SDS011;2482;49.154;8.254;2023-04-25T11:42:12;6.90;;;4.93;;
4933;SDS011;2482;49.154;8.254;2023-04-25T11:44:39;4.93;;;4.40;;
4933;SDS011;2482;49.154;8.254;2023-04-25T11:47:07;3.70;;;3.27;;
4933;SDS011;2482;49.154;8.254;2023-04-25T11:49:34;4.80;;;3.70;;
4933;SDS011;2482;49.154;8.254;2023-04-25T11:52:02;3.33;;;3.03;;
4933;SDS011;2482;49.154;8.254;2023-04-25T11:54:29;3.40;;;2.37;;
4933;SDS011;2482;49.154;8.254;2023-04-25T11:56:56;5.13;;;4.23;;
4933;SDS011;2482;49.154;8.254;2023-04-25T11:59:25;3.90;;;3.50;;
4933;SDS011;2482;49.154;8.254;2023-04-25T12:01:52;4.20;;;3.80;;
4933;SDS011;2482;49.154;8.254;2023-04-25T12:04:21;3.20;;;2.97;;
4933;SDS011;2482;49.154;8.254;2023-04-25T12:06:51;6.13;;;3.60;;
4933;SDS011;2482;49.154;8.254;2023-04-25T12:09:30;4.30;;;3.40;;
4933;SDS011;2482;49.154;8.254;2023-04-25T12:11:59;6.13;;;3.07;;
4933;SDS011;2482;49.154;8.254;2023-04-25T12:14:31;3.70;;;3.10;;
4933;SDS011;2482;49.154;8.254;2023-04-25T12:17:03;3.90;;;3.60;;
4933;SDS011;2482;49.154;8.254;2023-04-25T12:19:35;4.10;;;3.27;;
4933;SDS011;2482;49.154;8.254;2023-04-25T12:22:23;3.70;;;3.30;;
4933;SDS011;2482;49.154;8.254;2023-04-25T12:24:51;5.60;;;3.30;;
4933;SDS011;2482;49.154;8.254;2023-04-25T12:27:20;4.93;;;3.17;;
4933;SDS011;2482;49.154;8.254;2023-04-25T12:29:51;3.77;;;3.37;;
4933;SDS011;2482;49.154;8.254;2023-04-25T12:32:22;4.23;;;2.73;;
4933;SDS011;2482;49.154;8.254;2023-04-25T12:34:49;4.90;;;3.83;;
4933;SDS011;2482;49.154;8.254;2023-04-25T12:37:16;7.93;;;3.90;;
4933;SDS011;2482;49.154;8.254;2023-04-25T12:39:43;6.60;;;3.27;;
4933;SDS011;2482;49.154;8.254;2023-04-25T12:42:10;3.63;;;2.77;;
4933;SDS011;2482;49.154;8.254;2023-04-25T12:44:38;4.20;;;3.10;;
4933;SDS011;2482;49.154;8.254;2023-04-25T12:47:07;4.07;;;3.63;;
4933;SDS011;2482;49.154;8.254;2023-04-25T12:49:34;4.87;;;3.40;;
4933;SDS011;2482;49.154;8.254;2023-04-25T12:52:01;3.70;;;3.03;;
4933;SDS011;2482;49.154;8.254;2023-04-25T12:54:28;5.73;;;3.27;;
4933;SDS011;2482;49.154;8.254;2023-04-25T12:56:55;4.27;;;3.30;;
4933;SDS011;2482;49.154;8.254;2023-04-25T12:59:23;5.20;;;3.60;;
4933;SDS011;2482;49.154;8.254;2023-04-25T13:01:50;4.13;;;3.27;;
4933;SDS011;2482;49.154;8.254;2023-04-25T13:04:17;4.10;;;3.60;;
4933;SDS011;2482;49.154;8.254;2023-04-25T13:06:46;3.77;;;3.37;;
4933;SDS011;2482;49.154;8.254;2023-04-25T13:09:13;5.63;;;3.13;;
4933;SDS011;2482;49.154;8.254;2023-04-25T13:11:41;5.40;;;4.03;;
4933;SDS011;2482;49.154;8.254;2023-04-25T13:14:09;5.00;;;3.60;;
4933;SDS011;2482;49.154;8.254;2023-04-25T13:16:36;6.67;;;3.60;;
4933;SDS011;2482;49.154;8.254;2023-04-25T13:19:03;5.93;;;3.80;;
4933;SDS011;2482;49.154;8.254;2023-04-25T13:21:30;4.90;;;4.03;;
4933;SDS011;2482;49.154;8.254;2023-04-25T13:23:58;4.37;;;3.73;;
4933;SDS011;2482;49.154;8.254;2023-04-25T13:26:25;9.60;;;5.20;;
4933;SDS011;2482;49.154;8.254;2023-04-25T13:28:52;7.67;;;4.73;;
4933;SDS011;2482;49.154;8.254;2023-04-25T13:31:20;8.07;;;4.87;;
4933;SDS011;2482;49.154;8.254;2023-04-25T13:33:47;7.53;;;4.50;;
4933;SDS011;2482;49.154;8.254;2023-04-25T13:36:14;6.67;;;4.17;;
4933;SDS011;2482;49.154;8.254;2023-04-25T13:38:41;6.50;;;4.17;;
4933;SDS011;2482;49.154;8.254;2023-04-25T13:41:10;5.87;;;3.60;;
4933;SDS011;2482;49.154;8.254;2023-04-25T13:43:41;6.50;;;3.80;;
4933;SDS011;2482;49.154;8.254;2023-04-25T13:46:08;8.73;;;4.57;;
4933;SDS011;2482;49.154;8.254;2023-04-25T13:48:55;4.40;;;3.63;;
4933;SDS011;2482;49.154;8.254;2023-04-25T13:51:35;7.57;;;4.40;;
4933;SDS011;2482;49.154;8.254;2023-04-25T13:54:02;5.67;;;3.80;;
4933;SDS011;2482;49.154;8.254;2023-04-25T13:56:29;4.47;;;3.87;;
4933;SDS011;2482;49.154;8.254;2023-04-25T13:58:56;7.17;;;4.20;;
4933;SDS011;2482;49.154;8.254;2023-04-25T14:01:23;16.90;;;12.87;;
4933;SDS011;2482;49.154;8.254;2023-04-25T14:03:50;8.67;;;5.70;;
4933;SDS011;2482;49.154;8.254;2023-04-25T14:06:17;6.60;;;4.10;;
4933;SDS011;2482;49.154;8.254;2023-04-25T14:08:52;5.77;;;4.20;;
4933;SDS011;2482;49.154;8.254;2023-04-25T14:11:20;10.60;;;5.07;;
4933;SDS011;2482;49.154;8.254;2023-04-25T14:13:47;8.90;;;5.17;;
4933;SDS011;2482;49.154;8.254;2023-04-25T14:16:15;8.43;;;4.90;;
4933;SDS011;2482;49.154;8.254;2023-04-25T14:18:43;7.10;;;4.80;;
4933;SDS011;2482;49.154;8.254;2023-04-25T14:21:10;7.13;;;3.83;;
4933;SDS011;2482;49.154;8.254;2023-04-25T14:23:37;5.60;;;3.40;;
4933;SDS011;2482;49.154;8.254;2023-04-25T14:26:04;7.80;;;5.07;;
4933;SDS011;2482;49.154;8.254;2023-04-25T14:28:31;5.93;;;4.27;;
4933;SDS011;2482;49.154;8.254;2023-04-25T14:30:58;5.83;;;4.30;;
4933;SDS011;2482;49.154;8.254;2023-04-25T14:33:26;6.47;;;4.57;;
4933;SDS011;2482;49.154;8.254;2023-04-25T14:35:54;8.90;;;3.80;;
4933;SDS011;2482;49.154;8.254;2023-04-25T14:38:22;6.43;;;4.20;;
4933;SDS011;2482;49.154;8.254;2023-04-25T14:40:51;4.93;;;4.20;;
4933;SDS011;2482;49.154;8.254;2023-04-25T14:43:20;5.80;;;4.23;;
4933;SDS011;2482;49.154;8.254;2023-04-25T14:45:47;11.60;;;4.13;;
4933;SDS011;2482;49.154;8.254;2023-04-25T14:48:13;5.50;;;4.33;;
4933;SDS011;2482;49.154;8.254;2023-04-25T14:50:41;5.60;;;4.40;;
4933;SDS011;2482;49.154;8.254;2023-04-25T14:53:08;7.13;;;4.90;;
4933;SDS011;2482;49.154;8.254;2023-04-25T14:55:35;7.10;;;5.27;;
4933;SDS011;2482;49.154;8.254;2023-04-25T14:58:02;6.00;;;5.00;;
4933;SDS011;2482;49.154;8.254;2023-04-25T15:00:29;11.43;;;5.30;;
4933;SDS011;2482;49.154;8.254;2023-04-25T15:02:58;8.30;;;5.37;;
4933;SDS011;2482;49.154;8.254;2023-04-25T15:05:25;7.97;;;5.20;;
4933;SDS011;2482;49.154;8.254;2023-04-25T15:07:54;7.53;;;6.40;;
4933;SDS011;2482;49.154;8.254;2023-04-25T15:10:21;11.40;;;6.47;;
4933;SDS011;2482;49.154;8.254;2023-04-25T15:12:48;9.60;;;5.57;;
4933;SDS011;2482;49.154;8.254;2023-04-25T15:15:16;6.33;;;5.60;;
4933;SDS011;2482;49.154;8.254;2023-04-25T15:17:52;7.03;;;5.70;;
4933;SDS011;2482;49.154;8.254;2023-04-25T15:20:24;7.33;;;5.97;;
4933;SDS011;2482;49.154;8.254;2023-04-25T15:22:51;11.83;;;6.43;;
4933;SDS011;2482;49.154;8.254;2023-04-25T15:25:18;10.87;;;6.37;;
4933;SDS011;2482;49.154;8.254;2023-04-25T15:27:45;5.83;;;3.87;;
4933;SDS011;2482;49.154;8.254;2023-04-25T15:30:15;7.00;;;4.20;;
4933;SDS011;2482;49.154;8.254;2023-04-25T15:32:43;5.73;;;3.63;;
4933;SDS011;2482;49.154;8.254;2023-04-25T15:35:13;4.23;;;3.83;;